createdAt,value
2022-11-24T00:01:28.001Z,5.60
2022-11-24T00:03:29.696Z,5.60
2022-11-24T00:05:31.457Z,5.60
2022-11-24T00:07:33.272Z,5.60
2022-11-24T00:09:35.017Z,5.60
2022-11-24T00:11:37.363Z,5.70
2022-11-24T00:13:39.594Z,5.60
2022-11-24T00:15:41.371Z,5.60
2022-11-24T00:17:43.063Z,5.50
2022-11-24T00:19:45.052Z,5.50
2022-11-24T00:21:46.725Z,5.50
2022-11-24T00:23:49.488Z,5.60
2022-11-24T00:25:51.246Z,5.60
2022-11-24T00:27:52.945Z,5.60
2022-11-24T00:29:54.669Z,5.60
2022-11-24T00:31:57.113Z,5.60
2022-11-24T00:34:01.226Z,5.60
2022-11-24T00:36:02.927Z,5.50
2022-11-24T00:38:04.647Z,5.40
2022-11-24T00:40:07.109Z,5.40
2022-11-24T00:42:08.854Z,5.30
2022-11-24T00:44:10.657Z,5.30
2022-11-24T00:46:12.417Z,5.20
2022-11-24T00:48:14.218Z,5.20
2022-11-24T00:50:16.270Z,5.20
2022-11-24T00:52:17.951Z,5.10
2022-11-24T00:54:19.672Z,5.10
2022-11-24T00:56:21.433Z,5.10
2022-11-24T00:58:24.730Z,5.20
2022-11-24T01:00:26.576Z,5.20
2022-11-24T01:02:28.363Z,5.30
2022-11-24T01:04:30.067Z,5.30
2022-11-24T01:06:32.605Z,5.30
2022-11-24T01:08:36.445Z,5.40
2022-11-24T01:10:38.533Z,5.40
2022-11-24T01:12:40.224Z,5.40
2022-11-24T01:14:42.076Z,5.40
2022-11-24T01:16:43.821Z,5.40
2022-11-24T01:18:46.216Z,5.40
2022-11-24T01:20:47.902Z,5.40
2022-11-24T01:22:50.292Z,5.40
2022-11-24T01:24:52.020Z,5.30
2022-11-24T01:26:53.740Z,5.30
2022-11-24T01:28:58.494Z,5.30
2022-11-24T01:31:02.247Z,5.30
2022-11-24T01:33:04.024Z,5.30
2022-11-24T01:35:06.735Z,5.30
2022-11-24T01:37:08.484Z,5.40
2022-11-24T01:39:10.385Z,5.40
2022-11-24T01:41:12.089Z,5.40
2022-11-24T01:43:18.252Z,5.40
2022-11-24T01:45:28.316Z,5.30
2022-11-24T01:47:40.787Z,5.30
2022-11-24T01:49:49.145Z,5.30
2022-11-24T01:52:08.719Z,5.20
2022-11-24T01:54:20.591Z,5.20
2022-11-24T01:56:22.777Z,5.30
2022-11-24T01:58:29.191Z,5.30
2022-11-24T02:00:31.592Z,5.20
2022-11-24T02:02:33.700Z,5.20
2022-11-24T02:04:37.017Z,5.10
2022-11-24T02:06:42.326Z,5.10
2022-11-24T02:08:51.055Z,5.10
2022-11-24T02:10:53.387Z,5.20
2022-11-24T02:12:57.334Z,5.20
2022-11-24T02:14:59.792Z,5.30
2022-11-24T02:17:01.632Z,5.30
2022-11-24T02:19:28.050Z,5.30
2022-11-24T02:21:29.782Z,5.40
2022-11-24T02:23:51.738Z,5.40
2022-11-24T02:25:56.193Z,5.40
2022-11-24T02:28:00.577Z,5.40
2022-11-24T02:30:02.516Z,5.50
2022-11-24T02:32:07.270Z,5.50
2022-11-24T02:34:09.030Z,5.60
2022-11-24T02:36:10.872Z,5.60
2022-11-24T02:38:15.856Z,5.60
2022-11-24T02:40:25.131Z,5.60
2022-11-24T02:42:30.812Z,5.60
2022-11-24T02:44:41.937Z,5.70
2022-11-24T02:46:43.671Z,5.60
2022-11-24T02:48:45.590Z,5.70
2022-11-24T02:50:47.329Z,5.60
2022-11-24T02:52:49.052Z,5.60
2022-11-24T02:54:50.807Z,5.50
2022-11-24T02:56:52.833Z,5.50
2022-11-24T02:58:54.536Z,5.50
2022-11-24T03:00:57.277Z,5.50
2022-11-24T03:02:59.220Z,5.60
2022-11-24T03:05:00.984Z,5.50
2022-11-24T03:07:02.716Z,5.50
2022-11-24T03:09:05.852Z,5.40
2022-11-24T03:11:07.620Z,5.40
2022-11-24T03:13:09.564Z,5.30
2022-11-24T03:15:11.354Z,5.20
2022-11-24T03:17:13.095Z,5.10
2022-11-24T03:19:14.987Z,5.00
2022-11-24T03:21:16.969Z,4.90
2022-11-24T03:23:18.825Z,5.00
2022-11-24T03:25:20.679Z,5.00
2022-11-24T03:27:22.373Z,5.00
2022-11-24T03:29:24.210Z,5.00
2022-11-24T03:31:26.035Z,5.10
2022-11-24T03:33:27.793Z,5.10
2022-11-24T03:35:29.679Z,5.10
2022-11-24T03:37:31.436Z,5.20
2022-11-24T03:39:33.324Z,5.20
2022-11-24T03:41:35.248Z,5.20
2022-11-24T03:43:43.161Z,5.30
2022-11-24T03:45:49.608Z,5.30
2022-11-24T03:47:52.364Z,5.30
2022-11-24T03:49:54.048Z,5.30
2022-11-24T03:51:55.816Z,5.30
2022-11-24T03:53:57.491Z,5.30
2022-11-24T03:55:59.660Z,5.30
2022-11-24T03:58:01.407Z,5.30
2022-11-24T04:00:04.825Z,5.40
2022-11-24T04:02:07.788Z,5.40
2022-11-24T04:04:11.579Z,5.40
2022-11-24T04:06:13.293Z,5.40
2022-11-24T04:08:15.643Z,5.40
2022-11-24T04:10:17.523Z,5.50
2022-11-24T04:12:37.853Z,5.50
2022-11-24T04:14:39.484Z,5.50
2022-11-24T04:16:41.612Z,5.50
2022-11-24T04:18:43.511Z,5.50
2022-11-24T04:20:45.795Z,5.60
2022-11-24T04:22:47.517Z,5.60
2022-11-24T04:24:49.217Z,5.60
2022-11-24T04:26:50.856Z,5.60
2022-11-24T04:28:52.582Z,5.60
2022-11-24T04:30:54.218Z,5.70
2022-11-24T04:32:56.899Z,5.70
2022-11-24T04:34:58.700Z,5.70
2022-11-24T04:37:00.366Z,5.70
2022-11-24T04:39:19.960Z,5.70
2022-11-24T04:41:23.823Z,5.70
2022-11-24T04:43:25.549Z,5.80
2022-11-24T04:45:27.212Z,5.80
2022-11-24T04:47:28.918Z,5.80
2022-11-24T04:49:30.686Z,5.80
2022-11-24T04:51:32.401Z,5.90
2022-11-24T04:53:34.108Z,5.90
2022-11-24T04:55:38.783Z,5.90
2022-11-24T04:57:40.530Z,5.90
2022-11-24T04:59:42.156Z,5.90
2022-11-24T05:01:44.820Z,5.90
2022-11-24T05:03:46.547Z,5.90
2022-11-24T05:05:48.393Z,5.90
2022-11-24T05:07:50.059Z,5.90
2022-11-24T05:10:10.586Z,5.90
2022-11-24T05:12:12.301Z,5.90
2022-11-24T05:14:13.995Z,5.90
2022-11-24T05:16:15.776Z,5.90
2022-11-24T05:18:17.548Z,5.90
2022-11-24T05:20:19.515Z,5.90
2022-11-24T05:22:21.138Z,5.90
2022-11-24T05:24:22.799Z,5.80
2022-11-24T05:26:24.559Z,5.90
2022-11-24T05:28:26.403Z,5.90
2022-11-24T05:30:28.638Z,5.90
2022-11-24T05:32:30.314Z,6.00
2022-11-24T05:34:33.445Z,6.00
2022-11-24T05:36:53.676Z,6.10
2022-11-24T05:38:55.339Z,6.00
2022-11-24T05:41:04.432Z,6.00
2022-11-24T05:43:10.103Z,6.00
2022-11-24T05:45:14.586Z,6.00
2022-11-24T05:47:16.300Z,6.00
2022-11-24T05:49:17.961Z,6.00
2022-11-24T05:51:19.685Z,6.00
2022-11-24T05:53:21.544Z,5.90
2022-11-24T05:55:23.224Z,6.00
2022-11-24T05:57:24.908Z,6.00
2022-11-24T05:59:26.610Z,6.10
2022-11-24T06:01:28.347Z,6.10
2022-11-24T06:03:30.055Z,6.10
2022-11-24T06:05:31.903Z,6.10
2022-11-24T06:07:34.857Z,6.10
2022-11-24T06:09:38.440Z,6.00
2022-11-24T06:11:40.111Z,5.90
2022-11-24T06:13:42.009Z,5.90
2022-11-24T06:15:43.832Z,6.00
2022-11-24T06:17:52.145Z,6.00
2022-11-24T06:19:53.875Z,6.00
2022-11-24T06:21:55.754Z,5.90
2022-11-24T06:23:57.754Z,5.90
2022-11-24T06:26:00.232Z,5.90
2022-11-24T06:28:04.849Z,5.90
2022-11-24T06:30:06.866Z,6.00
2022-11-24T06:32:09.055Z,5.90
2022-11-24T06:34:12.408Z,6.00
2022-11-24T06:36:15.391Z,5.90
2022-11-24T06:38:21.486Z,5.90
2022-11-24T06:40:26.133Z,5.90
2022-11-24T06:42:27.976Z,5.90
2022-11-24T06:44:29.687Z,5.90
2022-11-24T06:46:31.611Z,6.00
2022-11-24T06:48:34.080Z,6.00
2022-11-24T06:50:35.725Z,6.00
2022-11-24T06:52:37.508Z,6.10
2022-11-24T06:54:39.136Z,6.10
2022-11-24T06:56:40.825Z,6.10
2022-11-24T06:58:44.532Z,6.10
2022-11-24T07:00:46.220Z,6.20
2022-11-24T07:02:48.092Z,6.20
2022-11-24T07:04:49.982Z,6.20
2022-11-24T07:06:51.908Z,6.20
2022-11-24T07:08:53.626Z,6.20
2022-11-24T07:10:55.321Z,6.30
2022-11-24T07:12:57.020Z,6.30
2022-11-24T07:14:58.741Z,6.30
2022-11-24T07:17:02.532Z,6.30
2022-11-24T07:19:04.307Z,6.30
2022-11-24T07:21:06.206Z,6.30
2022-11-24T07:23:08.796Z,6.30
2022-11-24T07:25:10.896Z,6.30
2022-11-24T07:27:12.629Z,6.20
2022-11-24T07:29:14.428Z,6.10
2022-11-24T07:31:18.932Z,6.00
2022-11-24T07:33:25.077Z,5.90
2022-11-24T07:35:26.944Z,5.80
2022-11-24T07:37:31.487Z,5.70
2022-11-24T07:39:33.331Z,5.60
2022-11-24T07:41:34.976Z,5.60
2022-11-24T07:43:37.823Z,5.60
2022-11-24T07:45:39.600Z,5.50
2022-11-24T07:47:41.551Z,5.50
2022-11-24T07:49:43.247Z,5.50
2022-11-24T07:51:45.297Z,5.50
2022-11-24T07:53:47.154Z,5.50
2022-11-24T07:56:02.061Z,5.40
2022-11-24T07:58:03.739Z,5.40
2022-11-24T08:00:06.014Z,5.40
2022-11-24T08:02:09.184Z,5.30
2022-11-24T08:04:10.972Z,5.30
2022-11-24T08:06:38.116Z,5.30
2022-11-24T08:08:35.640Z,5.30
2022-11-24T08:10:37.308Z,5.30
2022-11-24T08:12:39.235Z,5.30
2022-11-24T08:14:40.901Z,5.20
2022-11-24T08:16:42.646Z,5.20
2022-11-24T08:18:48.980Z,5.20
2022-11-24T08:20:50.774Z,5.20
2022-11-24T08:22:56.331Z,5.20
2022-11-24T08:24:58.167Z,5.20
2022-11-24T08:26:59.855Z,5.20
2022-11-24T08:29:01.534Z,5.20
2022-11-24T08:31:05.859Z,5.30
2022-11-24T08:33:07.588Z,5.30
2022-11-24T08:35:14.259Z,5.40
2022-11-24T08:37:16.426Z,5.40
2022-11-24T08:39:19.038Z,5.40
2022-11-24T08:41:20.765Z,5.40
2022-11-24T08:43:22.539Z,5.40
2022-11-24T08:45:25.618Z,5.40
2022-11-24T08:47:27.677Z,5.50
2022-11-24T08:49:29.488Z,5.50
2022-11-24T08:51:31.206Z,5.50
2022-11-24T08:53:32.866Z,5.50
2022-11-24T08:55:34.648Z,5.50
2022-11-24T08:57:36.292Z,5.60
2022-11-24T08:59:38.032Z,5.60
2022-11-24T09:01:40.254Z,5.60
2022-11-24T09:03:48.556Z,5.60
2022-11-24T09:05:53.350Z,5.60
2022-11-24T09:07:55.289Z,5.60
2022-11-24T09:09:56.986Z,5.60
2022-11-24T09:11:58.668Z,5.70
2022-11-24T09:14:00.596Z,5.80
2022-11-24T09:16:17.547Z,5.80
2022-11-24T09:18:19.329Z,5.80
2022-11-24T09:20:21.402Z,5.80
2022-11-24T09:22:23.164Z,5.80
2022-11-24T09:24:24.986Z,5.80
2022-11-24T09:26:29.435Z,5.90
2022-11-24T09:28:31.192Z,5.90
2022-11-24T09:30:32.906Z,6.00
2022-11-24T09:32:34.606Z,6.20
2022-11-24T09:34:36.280Z,6.40
2022-11-24T09:36:37.927Z,6.70
2022-11-24T09:38:40.071Z,6.80
2022-11-24T09:40:41.798Z,6.80
2022-11-24T09:42:58.302Z,6.70
2022-11-24T09:45:09.718Z,6.60
2022-11-24T09:47:23.058Z,6.40
2022-11-24T09:49:35.190Z,6.30
2022-11-24T09:51:38.353Z,6.20
2022-11-24T09:53:45.883Z,6.10
2022-11-24T09:55:51.393Z,6.10
2022-11-24T09:58:03.103Z,6.10
2022-11-24T10:00:12.616Z,6.10
2022-11-24T10:02:14.716Z,6.10
2022-11-24T10:04:30.121Z,6.00
2022-11-24T10:06:51.823Z,6.00
2022-11-24T10:09:12.080Z,6.00
2022-11-24T10:11:19.658Z,6.00
2022-11-24T10:13:38.468Z,5.90
2022-11-24T10:15:46.080Z,5.90
2022-11-24T10:18:16.228Z,5.90
2022-11-24T10:20:21.742Z,6.00
2022-11-24T10:22:41.631Z,6.10
2022-11-24T10:25:01.021Z,6.20
2022-11-24T10:27:28.492Z,6.20
2022-11-24T10:29:39.650Z,6.30
2022-11-24T10:31:43.561Z,6.50
2022-11-24T10:33:46.339Z,6.70
2022-11-24T10:36:17.050Z,6.80
2022-11-24T10:38:29.551Z,6.90
2022-11-24T10:40:56.468Z,6.90
2022-11-24T10:42:59.731Z,6.90
2022-11-24T10:45:10.745Z,7.00
2022-11-24T10:47:22.874Z,7.10
2022-11-24T10:49:29.926Z,7.10
2022-11-24T10:51:40.630Z,7.10
2022-11-24T10:53:43.289Z,7.20
2022-11-24T10:55:58.020Z,7.40
2022-11-24T10:58:15.813Z,7.40
2022-11-24T11:00:20.373Z,7.50
2022-11-24T11:02:35.459Z,7.70
2022-11-24T11:04:37.198Z,7.80
2022-11-24T11:06:40.590Z,8.00
2022-11-24T11:08:42.290Z,8.20
2022-11-24T11:10:45.336Z,8.40
2022-11-24T11:12:47.196Z,8.30
2022-11-24T11:14:48.856Z,8.40
2022-11-24T11:16:55.575Z,8.60
2022-11-24T11:18:57.646Z,8.80
2022-11-24T11:21:02.399Z,8.70
2022-11-24T11:23:16.843Z,8.90
2022-11-24T11:25:32.625Z,9.20
2022-11-24T11:27:34.643Z,8.90
2022-11-24T11:34:30.327Z,8.50
2022-11-24T11:36:33.459Z,8.30
2022-11-24T11:38:39.107Z,8.20
2022-11-24T11:40:42.823Z,8.00
2022-11-24T11:43:10.129Z,8.00
2022-11-24T11:45:16.614Z,7.90
2022-11-24T11:47:23.402Z,8.10
2022-11-24T11:49:25.176Z,8.90
2022-11-24T11:51:53.765Z,9.70
2022-11-24T11:54:16.461Z,9.90
2022-11-24T11:56:34.199Z,9.80
2022-11-24T11:59:04.242Z,9.60
2022-11-24T12:01:17.955Z,9.20
2022-11-24T12:03:38.496Z,8.90
2022-11-24T12:06:02.182Z,8.70
2022-11-24T12:08:21.325Z,8.50
2022-11-24T12:10:28.495Z,8.60
2022-11-24T12:13:00.810Z,8.50
2022-11-24T12:15:17.825Z,8.50
2022-11-24T12:17:28.264Z,8.40
2022-11-24T12:19:48.352Z,8.40
2022-11-24T12:22:01.733Z,8.40
2022-11-24T12:24:08.446Z,8.40
2022-11-24T12:26:41.376Z,8.40
2022-11-24T12:29:01.819Z,8.40
2022-11-24T12:31:11.146Z,8.50
2022-11-24T12:33:47.561Z,8.40
2022-11-24T12:35:56.742Z,8.30
2022-11-24T12:38:22.264Z,8.20
2022-11-24T12:40:39.768Z,8.10
2022-11-24T12:43:00.107Z,8.10
2022-11-24T12:45:01.825Z,8.00
2022-11-24T12:47:12.577Z,8.10
2022-11-24T12:49:26.397Z,8.20
2022-11-24T12:51:33.360Z,8.30
2022-11-24T12:53:37.452Z,8.30
2022-11-24T12:55:40.863Z,8.30
2022-11-24T13:00:32.699Z,8.20
2022-11-24T13:02:57.602Z,8.10
2022-11-24T13:05:11.411Z,8.10
2022-11-24T13:07:19.013Z,8.00
2022-11-24T13:09:20.969Z,8.00
2022-11-24T13:11:22.752Z,8.00
2022-11-24T13:13:29.212Z,8.00
2022-11-24T13:15:45.677Z,8.10
2022-11-24T13:18:06.813Z,8.20
2022-11-24T13:20:25.117Z,8.40
2022-11-24T13:22:26.934Z,8.40
2022-11-24T13:24:36.144Z,8.50
2022-11-24T13:26:48.683Z,8.60
2022-11-24T13:29:13.325Z,8.70
2022-11-24T13:31:25.470Z,9.20
2022-11-24T13:33:32.558Z,10.10
2022-11-24T13:35:34.311Z,10.80
2022-11-24T13:37:36.537Z,11.30
2022-11-24T13:39:58.896Z,11.10
2022-11-24T13:42:00.845Z,11.10
2022-11-24T13:44:25.426Z,10.80
2022-11-24T13:47:01.763Z,10.60
2022-11-24T13:49:14.036Z,10.30
2022-11-24T13:51:23.328Z,10.00
2022-11-24T13:53:28.150Z,9.60
2022-11-24T13:55:34.959Z,9.30
2022-11-24T13:57:39.910Z,9.10
2022-11-24T13:59:42.032Z,8.90
2022-11-24T14:01:46.762Z,8.80
2022-11-24T14:04:28.211Z,8.70
2022-11-24T14:06:25.632Z,8.50
2022-11-24T14:08:30.591Z,8.50
2022-11-24T14:10:37.434Z,8.40
2022-11-24T14:12:39.102Z,8.50
2022-11-24T14:14:41.699Z,8.50
2022-11-24T14:16:43.388Z,8.50
2022-11-24T14:18:50.644Z,8.50
2022-11-24T14:20:52.614Z,8.50
2022-11-24T14:22:54.420Z,8.40
2022-11-24T14:25:01.171Z,8.40
2022-11-24T14:27:02.861Z,8.50
2022-11-24T14:29:05.746Z,8.70
2022-11-24T14:31:24.383Z,8.80
2022-11-24T14:33:26.080Z,9.00
2022-11-24T14:35:33.044Z,9.30
2022-11-24T14:37:35.899Z,9.50
2022-11-24T14:39:42.387Z,9.60
2022-11-24T14:41:57.881Z,9.50
2022-11-24T14:44:15.124Z,9.40
2022-11-24T14:46:20.448Z,9.10
2022-11-24T14:48:30.643Z,8.90
2022-11-24T14:50:32.533Z,8.60
2022-11-24T14:52:35.247Z,8.40
2022-11-24T14:54:44.437Z,8.30
2022-11-24T14:57:01.577Z,8.10
2022-11-24T14:59:04.938Z,7.90
2022-11-24T15:01:21.033Z,7.80
2022-11-24T15:03:22.856Z,7.70
2022-11-24T15:05:25.482Z,7.70
2022-11-24T15:07:29.198Z,7.70
2022-11-24T15:09:40.639Z,7.60
2022-11-24T15:11:42.558Z,7.70
2022-11-24T15:13:54.612Z,7.60
2022-11-24T15:16:08.549Z,7.70
2022-11-24T15:18:39.711Z,7.70
2022-11-24T15:20:46.201Z,7.70
2022-11-24T15:22:49.303Z,7.70
2022-11-24T15:24:54.056Z,7.80
2022-11-24T15:27:00.606Z,7.70
2022-11-24T15:29:02.264Z,7.70
2022-11-24T15:31:06.445Z,7.70
2022-11-24T15:33:18.629Z,7.70
2022-11-24T15:35:22.656Z,7.70
2022-11-24T15:37:24.332Z,7.60
2022-11-24T15:39:26.035Z,7.60
2022-11-24T15:41:32.787Z,7.50
2022-11-24T15:43:37.055Z,7.40
2022-11-24T15:45:38.858Z,7.40
2022-11-24T15:47:40.585Z,7.30
2022-11-24T15:49:42.299Z,7.30
2022-11-24T15:51:45.832Z,7.20
2022-11-24T15:53:58.699Z,7.20
2022-11-24T15:56:05.865Z,7.20
2022-11-24T15:58:08.830Z,7.10
2022-11-24T16:00:18.516Z,7.00
2022-11-24T16:02:21.777Z,6.90
2022-11-24T16:04:23.699Z,6.90
2022-11-24T16:06:25.792Z,6.90
2022-11-24T16:08:27.787Z,7.00
2022-11-24T16:10:36.166Z,7.00
2022-11-24T16:12:37.865Z,7.10
2022-11-24T16:14:39.769Z,7.20
2022-11-24T16:16:41.772Z,7.10
2022-11-24T16:18:45.337Z,7.20
2022-11-24T16:20:47.155Z,7.20
2022-11-24T16:22:48.884Z,7.20
2022-11-24T16:24:50.609Z,7.10
2022-11-24T16:26:52.564Z,7.10
2022-11-24T16:28:54.244Z,7.10
2022-11-24T16:30:56.075Z,7.10
2022-11-24T16:32:57.894Z,7.10
2022-11-24T16:34:59.604Z,7.00
2022-11-24T16:37:01.357Z,7.00
2022-11-24T16:39:03.067Z,7.00
2022-11-24T16:41:04.851Z,7.10
2022-11-24T16:43:06.597Z,7.10
2022-11-24T16:45:12.695Z,7.00
2022-11-24T16:47:14.343Z,7.00
2022-11-24T16:49:16.133Z,6.90
2022-11-24T16:51:20.240Z,6.90
2022-11-24T16:53:21.919Z,6.90
2022-11-24T16:55:23.570Z,6.90
2022-11-24T16:57:25.252Z,6.90
2022-11-24T16:59:26.999Z,6.80
2022-11-24T17:01:30.174Z,6.80
2022-11-24T17:03:39.303Z,6.70
2022-11-24T17:05:40.953Z,6.70
2022-11-24T17:07:42.848Z,6.70
2022-11-24T17:09:44.640Z,6.60
2022-11-24T17:11:46.488Z,6.60
2022-11-24T17:13:49.176Z,6.60
2022-11-24T17:15:54.086Z,6.60
2022-11-24T17:18:23.089Z,6.60
2022-11-24T17:20:18.025Z,6.50
2022-11-24T17:22:19.693Z,6.40
2022-11-24T17:24:21.484Z,6.30
2022-11-24T17:26:23.940Z,6.20
2022-11-24T17:28:25.656Z,6.10
2022-11-24T17:30:27.300Z,6.10
2022-11-24T17:32:28.997Z,5.90
2022-11-24T17:34:30.753Z,5.80
2022-11-24T17:36:34.489Z,5.80
2022-11-24T17:38:36.815Z,5.80
2022-11-24T17:40:38.716Z,5.70
2022-11-24T17:42:40.422Z,5.60
2022-11-24T17:44:42.082Z,5.70
2022-11-24T17:46:43.758Z,5.70
2022-11-24T17:48:46.551Z,5.60
2022-11-24T17:50:48.895Z,5.60
2022-11-24T17:52:50.797Z,5.50
2022-11-24T17:54:52.437Z,5.50
2022-11-24T17:56:54.152Z,5.70
2022-11-24T17:58:58.287Z,5.70
2022-11-24T18:01:00.155Z,5.70
2022-11-24T18:03:01.888Z,5.60
2022-11-24T18:05:03.840Z,5.60
2022-11-24T18:07:05.700Z,5.60
2022-11-24T18:09:07.429Z,5.60
2022-11-24T18:11:25.958Z,5.70
2022-11-24T18:13:55.231Z,5.70
2022-11-24T18:15:52.399Z,5.60
2022-11-24T18:17:54.389Z,5.50
2022-11-24T18:19:56.046Z,5.40
2022-11-24T18:21:57.790Z,5.40
2022-11-24T18:23:59.411Z,5.40
2022-11-24T18:26:03.695Z,5.40
2022-11-24T18:28:05.397Z,5.40
2022-11-24T18:30:08.037Z,5.40
2022-11-24T18:32:09.704Z,5.50
2022-11-24T18:34:11.380Z,5.60
2022-11-24T18:36:18.943Z,5.50
2022-11-24T18:38:20.604Z,5.60
2022-11-24T18:40:22.443Z,5.50
2022-11-24T18:42:25.655Z,5.50
2022-11-24T18:44:27.569Z,5.50
2022-11-24T18:46:29.336Z,5.40
2022-11-24T18:48:31.003Z,5.50
2022-11-24T18:50:33.296Z,5.50
2022-11-24T18:52:34.948Z,5.50
2022-11-24T18:54:36.975Z,5.50
2022-11-24T18:56:38.875Z,5.40
2022-11-24T18:58:40.869Z,5.40
2022-11-24T19:00:42.515Z,5.40
2022-11-24T19:02:44.217Z,5.30
2022-11-24T19:04:46.086Z,5.30
2022-11-24T19:06:47.817Z,5.30
2022-11-24T19:08:53.125Z,5.30
2022-11-24T19:10:54.873Z,5.30
2022-11-24T19:12:56.651Z,5.40
2022-11-24T19:14:58.296Z,5.50
2022-11-24T19:17:04.051Z,5.50
2022-11-24T19:19:06.148Z,5.60
2022-11-24T19:21:07.976Z,5.60
2022-11-24T19:23:09.685Z,5.60
2022-11-24T19:25:11.332Z,5.50
2022-11-24T19:27:14.528Z,5.50
2022-11-24T19:29:16.188Z,5.50
2022-11-24T19:31:19.296Z,5.50
2022-11-24T19:33:21.522Z,5.50
2022-11-24T19:35:23.628Z,5.50
2022-11-24T19:37:25.431Z,5.50
2022-11-24T19:39:27.379Z,5.40
2022-11-24T19:41:30.930Z,5.40
2022-11-24T19:43:33.448Z,5.30
2022-11-24T19:45:35.259Z,5.20
2022-11-24T19:47:37.068Z,5.30
2022-11-24T19:49:38.806Z,5.20
2022-11-24T19:51:40.655Z,5.30
2022-11-24T19:53:43.218Z,5.30
2022-11-24T19:55:45.010Z,5.30
2022-11-24T19:57:46.865Z,5.30
2022-11-24T19:59:48.731Z,5.20
2022-11-24T20:01:50.449Z,5.20
2022-11-24T20:04:00.805Z,5.10
2022-11-24T20:06:02.764Z,5.10
2022-11-24T20:08:04.804Z,4.90
2022-11-24T20:10:08.052Z,4.80
2022-11-24T20:12:10.131Z,4.80
2022-11-24T20:14:14.068Z,4.90
2022-11-24T20:16:16.829Z,4.90
2022-11-24T20:18:18.515Z,5.00
2022-11-24T20:20:20.167Z,5.00
2022-11-24T20:22:21.868Z,5.10
2022-11-24T20:24:25.057Z,5.10
2022-11-24T20:26:29.778Z,5.10
2022-11-24T20:28:31.937Z,5.10
2022-11-24T20:30:33.698Z,5.10
2022-11-24T20:32:35.451Z,5.00
2022-11-24T20:34:37.606Z,5.00
2022-11-24T20:36:42.267Z,5.00
2022-11-24T20:38:44.689Z,5.00
2022-11-24T20:40:46.483Z,4.90
2022-11-24T20:42:48.250Z,4.90
2022-11-24T20:44:50.102Z,4.90
2022-11-24T20:46:54.248Z,5.00
2022-11-24T20:48:56.728Z,5.10
2022-11-24T20:51:28.972Z,5.20
2022-11-24T20:53:30.676Z,5.10
2022-11-24T20:55:33.531Z,5.10
2022-11-24T20:57:35.548Z,5.10
2022-11-24T20:59:37.260Z,5.00
2022-11-24T21:01:42.453Z,4.90
2022-11-24T21:03:45.715Z,5.00
2022-11-24T21:05:47.442Z,5.00
2022-11-24T21:07:49.205Z,5.00
2022-11-24T21:09:50.885Z,5.00
2022-11-24T21:11:52.647Z,5.00
2022-11-24T21:13:54.687Z,4.90
2022-11-24T21:15:56.381Z,4.90
2022-11-24T21:17:58.159Z,4.90
2022-11-24T21:20:01.249Z,4.90
2022-11-24T21:22:03.143Z,4.90
2022-11-24T21:24:12.128Z,4.90
2022-11-24T21:26:16.882Z,4.90
2022-11-24T21:28:18.686Z,4.90
2022-11-24T21:30:20.419Z,4.80
2022-11-24T21:32:22.088Z,4.80
2022-11-24T21:34:23.756Z,4.60
2022-11-24T21:36:26.652Z,4.50
2022-11-24T21:38:28.480Z,4.40
2022-11-24T21:40:30.232Z,4.40
2022-11-24T21:42:31.919Z,4.30
2022-11-24T21:44:33.874Z,4.30
2022-11-24T21:46:43.643Z,4.20
2022-11-24T21:48:47.884Z,4.30
2022-11-24T21:50:49.618Z,4.30
2022-11-24T21:52:51.727Z,4.40
2022-11-24T21:54:53.374Z,4.50
2022-11-24T21:56:55.508Z,4.50
2022-11-24T21:58:58.155Z,4.50
2022-11-24T22:01:04.602Z,4.50
2022-11-24T22:03:06.333Z,4.50
2022-11-24T22:05:08.632Z,4.40
2022-11-24T22:07:10.307Z,4.30
2022-11-24T22:09:17.550Z,4.20
2022-11-24T22:11:23.185Z,4.20
2022-11-24T22:13:24.863Z,4.30
2022-11-24T22:15:26.508Z,4.30
2022-11-24T22:17:31.054Z,4.40
2022-11-24T22:19:32.752Z,4.40
2022-11-24T22:21:34.418Z,4.40
2022-11-24T22:23:36.748Z,4.30
2022-11-24T22:25:38.387Z,4.30
2022-11-24T22:27:40.077Z,4.20
2022-11-24T22:29:41.798Z,4.10
2022-11-24T22:31:43.492Z,4.00
2022-11-24T22:33:46.158Z,4.10
2022-11-24T22:35:58.739Z,4.10
2022-11-24T22:38:00.393Z,4.10
2022-11-24T22:40:02.297Z,4.10
2022-11-24T22:42:04.143Z,4.00
2022-11-24T22:44:06.248Z,4.00
2022-11-24T22:46:11.016Z,4.00
2022-11-24T22:48:12.841Z,4.00
2022-11-24T22:50:14.653Z,4.10
2022-11-24T22:52:16.281Z,4.10
2022-11-24T22:54:17.978Z,4.20
2022-11-24T22:56:20.496Z,4.20
2022-11-24T22:58:22.196Z,4.20
2022-11-24T23:00:23.897Z,4.30
2022-11-24T23:02:25.609Z,4.30
2022-11-24T23:04:27.591Z,4.30
2022-11-24T23:06:31.143Z,4.20
2022-11-24T23:08:34.365Z,4.30
2022-11-24T23:10:36.071Z,4.40
2022-11-24T23:12:37.727Z,4.30
2022-11-24T23:14:39.763Z,4.20
2022-11-24T23:16:42.781Z,4.10
2022-11-24T23:18:49.819Z,4.10
2022-11-24T23:20:54.208Z,4.10
2022-11-24T23:22:56.915Z,4.20
2022-11-24T23:24:58.575Z,4.20
2022-11-24T23:27:00.283Z,4.30
2022-11-24T23:29:02.943Z,4.20
2022-11-24T23:31:13.345Z,4.30
2022-11-24T23:33:15.155Z,4.30
2022-11-24T23:35:17.096Z,4.30
2022-11-24T23:37:18.866Z,4.30
2022-11-24T23:39:20.561Z,4.30
2022-11-24T23:41:24.752Z,4.40
2022-11-24T23:43:27.061Z,4.50
2022-11-24T23:45:28.910Z,4.50
2022-11-24T23:47:30.974Z,4.40
2022-11-24T23:49:32.625Z,4.50
2022-11-24T23:51:34.320Z,4.40
2022-11-24T23:53:36.173Z,4.30
2022-11-24T23:55:37.870Z,4.30
2022-11-24T23:57:39.664Z,4.30
2022-11-24T23:59:42.257Z,4.30
